Terminal Aerodrome Forecast
Issued by NWS

Home | Current Version | Previous Version | Graphics & Text | Print | Product List | Glossary On
Versions: 1 2 3 4 5 6 7 8 9 10 11 12 13
928
FTUS43 KICT 082320
TAFSLN
TAF
KSLN 082320Z 0900/0924 32011KT P6SM SCT120
     FM090200 30005KT P6SM SCT250=

USA.gov is the U.S. government's official web portal to all federal, state and local government web resources and services.